Airfield :
LOGIN :

Register | Disclaimer

   EN    FR    IT 

 










Legend :    VFR   Marginal VFR   IFR   Intensive IFR   Very Intensive IFR
Visi :
Ceiling :
>= 8 km
>= 3000ft
5 to 8 km
1000 to 3000 ft
1500m to 5 km
500 to 1000 ft
800 to 1500m
200 to 500 ft
< 800m
< 200 ft
Symbols :   Thunderstorms  Fog  Heavy snow  Heavy precipitations  Wind > 20 kt
SIGMETs :     Misc.  Thunderstorms  Icing  Turbulence  Mountain Waves  Volcanic Ashes







- Airport Elevation : 1197 ft
- IATA code : SPM


ETAD - Spangdahlem Ab

CURRENT METAR :
  • 180256Z AUTO 30004KT 9999 FEW018 M01/M03 A2997 RMK AO2 SNE03 SLP157 P0000 60000 T10101030 52016 $

EXPIRED METARs :
  • 180218Z AUTO 28006KT 9999 BKN020 M01/M02 A2996 RMK AO2 SNE03 CIG 017 RWY23 SLP154 $
  • 180203Z AUTO 28004KT 9999 FEW017 FEW050 M01/M02 A2996 RMK AO2 SNE03 SLP154 $
  • 180156Z AUTO 28004KT 9999 -SN FEW017 FEW050 M01/M02 A2996 RMK AO2 UPB08E22SNB31E47SNB50 SLP154 P0000 T10091020 $
  • 180147Z AUTO 27005KT 9999 FEW017 SCT050 M01/M02 A2995 RMK AO2 UPB08E22SNB31E47 SLP150 $
  • 180131Z AUTO 27005KT 9999 -SN FEW020 SCT050 M01/M02 A2995 RMK AO2 UPB08E22SNB31 SLP150 $
  • 180108Z AUTO 27005KT 9999 -UP BKN021 BKN028 00/M02 A2994 RMK AO2 UPB08 CIG 021V026 SLP145 $
  • 180056Z AUTO 27006KT 9999 BKN019 M01/M02 A2993 RMK AO2 SNE2356UPB2356E02 SLP144 P0000 T10071024 $
  • 180017Z AUTO 28005KT 9999 SCT018 SCT036 M01/M02 A2992 RMK AO2 SNE2356UPB2356E02 SLP139 $
  • 180002Z AUTO 27006KT 9999 SCT016 BKN022 BKN029 OVC036 M01/M02 A2992 RMK AO2 SNE2356UPB2356E02 CIG 016V022 CIG 015 RWY23 SLP139 $

TAF TAF ETAD
Valid from the 17 at 21:00 until the 19 at 03:00 UTC


172100Z 1721/1903 28009KT 9999 OVC015 620153 QNH2985INS
TEMPO 1721/1724 8000 -SN
BECMG 1801/1802 27006KT 9999 FEW005 SCT010 QNH2994INS
BECMG 1806/1807 26005KT 9999 FEW010 QNH3000INS
BECMG 1809/1810 23005KT 9999 FEW010 QNH3001INS
BECMG 1819/1820 12005KT 9999 FEW010 QNH2999INS TX01/1813Z TNM03/1823Z LAST NO AMDS AFT 1721 NEXT 1805
No reported NOTAMs for that airfield.



MET'MAP, your aeronautical weather chart ! - Copyright ORBIFLY December 2007 - Disclaimer

ORBIFLY MET'MAP TEAM :

Programming & Development : Alexandra Zaïnal
Concept & Development : Baudouin d'Aumeries
Co-Development & Prog : Marc-Olivier Méhu
Technical & hardware support : Manuel Goepfert

Contact : metmap@orbifly.com




SOURCES & CREDITS :

   NOAA